createdAt,value
2019-05-30T00:00:03.672Z,13.90
2019-05-30T00:02:17.596Z,13.90
2019-05-30T00:04:45.567Z,14.10
2019-05-30T00:07:14.145Z,13.80
2019-05-30T00:09:42.005Z,14.10
2019-05-30T00:12:10.997Z,13.90
2019-05-30T00:14:39.347Z,13.80
2019-05-30T00:17:07.968Z,13.50
2019-05-30T00:19:37.739Z,13.80
2019-05-30T00:22:06.279Z,13.80
2019-05-30T00:24:35.366Z,13.80
2019-05-30T00:27:04.550Z,14.00
2019-05-30T00:29:34.151Z,13.90
2019-05-30T00:32:01.703Z,13.90
2019-05-30T00:34:30.177Z,13.90
2019-05-30T00:36:59.745Z,13.90
2019-05-30T00:39:28.606Z,13.80
2019-05-30T00:41:57.850Z,14.30
2019-05-30T00:44:25.312Z,13.90
2019-05-30T00:46:54.138Z,14.20
2019-05-30T00:49:22.794Z,13.90
2019-05-30T00:51:51.270Z,14.30
2019-05-30T00:54:20.162Z,14.00
2019-05-30T00:56:48.804Z,14.10
2019-05-30T00:59:17.979Z,14.10
2019-05-30T01:01:45.631Z,14.10
2019-05-30T01:04:13.952Z,14.20
2019-05-30T01:06:42.487Z,14.20
2019-05-30T01:09:10.198Z,14.20
2019-05-30T01:11:38.545Z,14.20
2019-05-30T01:14:07.594Z,14.20
2019-05-30T01:16:36.062Z,14.20
2019-05-30T01:19:05.311Z,14.30
2019-05-30T01:21:33.730Z,14.50
2019-05-30T01:24:03.169Z,14.30
2019-05-30T01:26:32.014Z,14.40
2019-05-30T01:29:01.357Z,14.40
2019-05-30T01:31:28.738Z,14.50
2019-05-30T01:33:57.400Z,14.40
2019-05-30T01:36:24.706Z,14.50
2019-05-30T01:38:52.919Z,14.50
2019-05-30T01:41:21.233Z,14.50
2019-05-30T01:43:49.574Z,14.50
2019-05-30T01:46:17.034Z,14.90
2019-05-30T01:48:45.380Z,14.50
2019-05-30T01:51:13.613Z,14.80
2019-05-30T01:53:42.099Z,14.50
2019-05-30T01:56:10.748Z,14.70
2019-05-30T01:58:37.951Z,14.50
2019-05-30T02:01:21.105Z,14.60
2019-05-30T02:03:36.360Z,14.60
2019-05-30T02:06:05.534Z,14.70
2019-05-30T02:08:34.157Z,14.90
2019-05-30T02:11:03.396Z,14.60
2019-05-30T02:13:30.966Z,14.70
2019-05-30T02:15:59.625Z,14.70
2019-05-30T02:18:27.890Z,14.60
2019-05-30T02:20:56.015Z,14.60
2019-05-30T02:23:29.157Z,15.00
2019-05-30T02:25:57.451Z,14.60
2019-05-30T02:28:24.594Z,14.50
2019-05-30T02:30:53.003Z,14.70
2019-05-30T02:33:21.170Z,14.90
2019-05-30T02:35:50.258Z,14.60
2019-05-30T02:38:17.503Z,14.70
2019-05-30T02:40:45.800Z,14.90
2019-05-30T02:43:12.979Z,14.60
2019-05-30T02:45:41.134Z,14.80
2019-05-30T02:48:09.974Z,14.90
2019-05-30T02:50:39.491Z,14.70
2019-05-30T02:53:12.729Z,14.60
2019-05-30T02:55:39.685Z,14.50
2019-05-30T02:58:08.588Z,14.70
2019-05-30T03:00:36.515Z,14.60
2019-05-30T03:03:06.675Z,14.70
2019-05-30T03:05:35.050Z,15.00
2019-05-30T03:08:05.012Z,14.70
2019-05-30T03:10:34.726Z,14.70
2019-05-30T03:13:04.101Z,14.60
2019-05-30T03:15:39.076Z,14.50
2019-05-30T03:18:08.020Z,14.70
2019-05-30T03:20:35.355Z,14.60
2019-05-30T03:23:04.807Z,14.60
2019-05-30T03:25:32.000Z,14.70
2019-05-30T03:28:00.250Z,14.70
2019-05-30T03:30:29.957Z,14.70
2019-05-30T03:33:07.224Z,14.70
2019-05-30T03:35:32.784Z,14.80
2019-05-30T03:37:59.030Z,14.80
2019-05-30T03:40:28.217Z,14.80
2019-05-30T03:42:57.413Z,14.70
2019-05-30T03:45:26.206Z,14.80
2019-05-30T03:47:58.767Z,15.00
2019-05-30T03:50:29.355Z,14.70
2019-05-30T03:52:58.664Z,14.80
2019-05-30T03:55:30.083Z,14.80
2019-05-30T03:58:05.555Z,15.20
2019-05-30T04:00:44.412Z,14.80
2019-05-30T04:03:24.395Z,14.80
2019-05-30T04:05:57.267Z,14.80
2019-05-30T04:08:28.575Z,15.20
2019-05-30T04:11:00.524Z,15.00
2019-05-30T04:13:45.809Z,14.90
2019-05-30T04:16:15.686Z,15.00
2019-05-30T04:18:44.489Z,14.90
2019-05-30T04:21:14.184Z,15.10
2019-05-30T04:23:42.991Z,14.90
2019-05-30T04:26:11.571Z,14.90
2019-05-30T04:28:39.594Z,15.20
2019-05-30T04:31:08.117Z,14.90
2019-05-30T04:33:36.600Z,15.10
2019-05-30T04:36:04.942Z,14.90
2019-05-30T04:38:33.167Z,14.90
2019-05-30T04:41:01.323Z,14.70
2019-05-30T04:43:29.964Z,15.10
2019-05-30T04:45:58.180Z,15.00
2019-05-30T04:48:26.497Z,15.10
2019-05-30T04:50:54.599Z,15.00
2019-05-30T04:53:25.333Z,15.00
2019-05-30T04:55:52.613Z,15.10
2019-05-30T04:58:23.853Z,15.10
2019-05-30T05:00:49.879Z,15.20
2019-05-30T05:03:37.023Z,15.10
2019-05-30T05:05:48.036Z,15.20
2019-05-30T05:08:15.821Z,15.10
2019-05-30T05:10:44.748Z,14.80
2019-05-30T05:13:14.120Z,15.10
2019-05-30T05:15:42.657Z,15.20
2019-05-30T05:18:09.846Z,15.20
2019-05-30T05:20:36.939Z,15.60
2019-05-30T05:23:05.034Z,15.30
2019-05-30T05:25:33.285Z,15.00
2019-05-30T05:28:01.499Z,15.40
2019-05-30T05:30:29.659Z,15.50
2019-05-30T05:32:57.869Z,15.60
2019-05-30T05:35:26.110Z,15.50
2019-05-30T05:37:54.309Z,15.40
2019-05-30T05:40:22.582Z,15.50
2019-05-30T05:42:50.786Z,15.60
2019-05-30T05:45:20.554Z,15.90
2019-05-30T05:47:48.848Z,15.60
2019-05-30T05:50:31.846Z,15.60
2019-05-30T05:52:59.154Z,15.70
2019-05-30T05:55:26.525Z,15.90
2019-05-30T05:57:54.981Z,16.00
2019-05-30T06:00:23.425Z,16.30
2019-05-30T06:02:51.926Z,16.10
2019-05-30T06:05:20.250Z,16.20
2019-05-30T06:07:48.739Z,16.10
2019-05-30T06:10:19.520Z,16.20
2019-05-30T06:12:47.231Z,16.20
2019-05-30T06:15:14.567Z,16.30
2019-05-30T06:17:42.867Z,16.30
2019-05-30T06:20:11.687Z,16.30
2019-05-30T06:22:38.926Z,16.30
2019-05-30T06:25:08.202Z,16.30
2019-05-30T06:27:35.542Z,16.40
2019-05-30T06:30:04.957Z,16.40
2019-05-30T06:32:33.872Z,16.40
2019-05-30T06:35:01.103Z,16.40
2019-05-30T06:37:29.504Z,16.40
2019-05-30T06:39:57.718Z,16.50
2019-05-30T06:42:25.939Z,16.60
2019-05-30T06:44:54.380Z,16.70
2019-05-30T06:47:22.656Z,16.40
2019-05-30T06:49:50.861Z,16.40
2019-05-30T06:52:20.779Z,16.50
2019-05-30T06:54:48.256Z,16.40
2019-05-30T06:57:15.744Z,16.50
2019-05-30T06:59:44.518Z,16.20
2019-05-30T07:02:11.873Z,16.20
2019-05-30T07:04:51.080Z,16.20
2019-05-30T07:07:10.460Z,16.30
2019-05-30T07:09:39.097Z,16.20
2019-05-30T07:12:06.373Z,16.20
2019-05-30T07:14:34.736Z,16.60
2019-05-30T07:17:02.967Z,16.40
2019-05-30T07:19:31.695Z,16.50
2019-05-30T07:22:00.164Z,16.40
2019-05-30T07:24:28.384Z,16.60
2019-05-30T07:26:56.887Z,16.50
2019-05-30T07:29:25.797Z,16.60
2019-05-30T07:31:54.585Z,16.70
2019-05-30T07:34:23.901Z,16.70
2019-05-30T07:36:51.437Z,16.70
2019-05-30T07:39:18.675Z,16.40
2019-05-30T07:42:04.975Z,16.60
2019-05-30T07:44:17.427Z,16.50
2019-05-30T07:46:46.147Z,16.70
2019-05-30T07:49:14.606Z,16.70
2019-05-30T07:51:43.277Z,16.90
2019-05-30T07:54:10.599Z,16.80
2019-05-30T07:56:39.256Z,16.70
2019-05-30T07:59:07.858Z,16.90
2019-05-30T08:01:36.860Z,16.70
2019-05-30T08:04:05.351Z,16.60
2019-05-30T08:06:34.459Z,16.60
2019-05-30T08:09:06.201Z,16.60
2019-05-30T08:11:33.508Z,16.70
2019-05-30T08:14:00.710Z,17.10
2019-05-30T08:16:29.157Z,16.90
2019-05-30T08:18:57.667Z,17.10
2019-05-30T08:21:25.992Z,17.20
2019-05-30T08:23:54.519Z,17.30
2019-05-30T08:26:22.979Z,17.40
2019-05-30T08:28:52.307Z,17.50
2019-05-30T08:31:20.494Z,17.60
2019-05-30T08:33:49.337Z,17.20
2019-05-30T08:36:16.662Z,17.50
2019-05-30T08:38:47.967Z,17.40
2019-05-30T08:41:15.735Z,17.50
2019-05-30T08:43:44.424Z,17.50
2019-05-30T08:46:11.591Z,17.60
2019-05-30T08:48:40.363Z,17.60
2019-05-30T08:51:08.615Z,17.60
2019-05-30T08:53:36.774Z,17.70
2019-05-30T08:56:05.531Z,17.70
2019-05-30T08:58:34.577Z,17.80
2019-05-30T09:01:03.395Z,18.00
2019-05-30T09:03:31.794Z,17.90
2019-05-30T09:06:04.032Z,18.00
2019-05-30T09:08:30.283Z,18.20
2019-05-30T09:10:58.674Z,18.20
2019-05-30T09:13:27.432Z,18.20
2019-05-30T09:15:54.650Z,18.20
2019-05-30T09:18:23.483Z,18.80
2019-05-30T09:20:51.840Z,18.40
2019-05-30T09:23:20.059Z,18.50
2019-05-30T09:25:49.850Z,18.70
2019-05-30T09:28:18.132Z,18.60
2019-05-30T09:30:47.027Z,18.60
2019-05-30T09:33:15.311Z,18.70
2019-05-30T09:35:44.943Z,18.50
2019-05-30T09:38:12.284Z,18.60
2019-05-30T09:40:42.007Z,18.40
2019-05-30T09:43:11.077Z,18.70
2019-05-30T09:45:38.403Z,18.30
2019-05-30T09:48:06.934Z,18.30
2019-05-30T09:50:35.373Z,18.40
2019-05-30T09:53:03.554Z,18.40
2019-05-30T09:55:32.522Z,18.40
2019-05-30T09:58:00.830Z,18.30
2019-05-30T10:00:31.862Z,18.40
2019-05-30T10:02:59.196Z,18.50
2019-05-30T10:05:26.419Z,18.50
2019-05-30T10:07:54.621Z,18.70
2019-05-30T10:10:23.318Z,18.90
2019-05-30T10:12:52.669Z,18.90
2019-05-30T10:15:21.503Z,19.00
2019-05-30T10:17:52.183Z,19.10
2019-05-30T10:20:21.542Z,19.30
2019-05-30T10:22:50.797Z,19.70
2019-05-30T10:25:19.499Z,19.70
2019-05-30T10:27:49.087Z,19.50
2019-05-30T10:30:19.143Z,19.50
2019-05-30T10:32:49.034Z,19.30
2019-05-30T10:35:17.906Z,19.50
2019-05-30T10:37:47.153Z,19.20
2019-05-30T10:40:16.046Z,19.00
2019-05-30T10:42:46.210Z,19.10
2019-05-30T10:45:16.095Z,19.00
2019-05-30T10:47:43.635Z,18.90
2019-05-30T10:50:12.328Z,19.00
2019-05-30T10:52:39.799Z,18.90
2019-05-30T10:55:08.362Z,19.00
2019-05-30T10:57:36.814Z,19.00
2019-05-30T11:00:09.100Z,18.90
2019-05-30T11:02:35.254Z,19.00
2019-05-30T11:05:02.872Z,18.80
2019-05-30T11:07:37.149Z,18.70
2019-05-30T11:10:09.666Z,18.70
2019-05-30T11:12:38.274Z,18.50
2019-05-30T11:15:07.379Z,18.40
2019-05-30T11:17:35.750Z,18.60
2019-05-30T11:20:04.884Z,18.40
2019-05-30T11:22:34.713Z,18.40
2019-05-30T11:25:01.974Z,18.40
2019-05-30T11:27:29.935Z,18.50
2019-05-30T11:29:58.995Z,18.40
2019-05-30T11:32:27.295Z,18.40
2019-05-30T11:34:57.437Z,18.40
2019-05-30T11:37:24.788Z,18.60
2019-05-30T11:39:53.380Z,18.70
2019-05-30T11:42:21.713Z,18.60
2019-05-30T11:44:51.407Z,18.60
2019-05-30T11:47:22.940Z,18.50
2019-05-30T11:49:51.595Z,18.50
2019-05-30T11:52:18.897Z,18.70
2019-05-30T11:54:46.123Z,18.60
2019-05-30T11:57:14.040Z,18.70
2019-05-30T11:59:41.279Z,18.80
2019-05-30T12:02:09.802Z,19.00
2019-05-30T12:04:38.175Z,18.80
2019-05-30T12:07:07.938Z,18.80
2019-05-30T12:09:36.802Z,18.70
2019-05-30T12:12:04.982Z,18.80
2019-05-30T12:14:33.578Z,18.90
2019-05-30T12:17:02.261Z,19.00
2019-05-30T12:19:30.959Z,19.00
2019-05-30T12:21:59.937Z,19.10
2019-05-30T12:24:28.703Z,19.00
2019-05-30T12:26:58.070Z,19.00
2019-05-30T12:29:26.570Z,19.00
2019-05-30T12:31:57.570Z,19.10
2019-05-30T12:34:25.507Z,19.10
2019-05-30T12:36:54.303Z,19.20
2019-05-30T12:39:22.807Z,19.30
2019-05-30T12:41:50.987Z,18.90
2019-05-30T12:44:19.189Z,19.20
2019-05-30T12:46:47.835Z,19.10
2019-05-30T12:49:16.635Z,19.80
2019-05-30T12:51:45.728Z,19.30
2019-05-30T12:54:13.204Z,19.50
2019-05-30T12:56:41.959Z,19.10
2019-05-30T12:59:10.478Z,19.10
2019-05-30T13:01:37.701Z,19.10
2019-05-30T13:04:07.262Z,19.10
2019-05-30T13:06:36.041Z,19.10
2019-05-30T13:09:07.350Z,19.30
2019-05-30T13:11:36.707Z,19.10
2019-05-30T13:14:48.363Z,19.20
2019-05-30T13:17:15.261Z,19.10
2019-05-30T13:19:43.445Z,19.20
2019-05-30T13:22:11.452Z,19.10
2019-05-30T13:24:39.532Z,19.00
2019-05-30T13:27:07.746Z,19.00
2019-05-30T13:29:36.413Z,19.40
2019-05-30T13:32:04.806Z,19.00
2019-05-30T13:34:33.405Z,18.70
2019-05-30T13:37:02.915Z,18.80
2019-05-30T13:39:29.953Z,18.80
2019-05-30T13:41:57.749Z,18.90
2019-05-30T13:44:26.235Z,18.90
2019-05-30T13:46:54.641Z,18.70
2019-05-30T13:49:22.047Z,19.00
2019-05-30T13:51:52.750Z,19.30
2019-05-30T13:54:19.637Z,19.30
2019-05-30T13:56:46.926Z,19.30
2019-05-30T13:59:13.891Z,19.20
2019-05-30T14:01:41.910Z,19.30
2019-05-30T14:04:10.419Z,19.20
2019-05-30T14:06:37.552Z,19.70
2019-05-30T14:09:06.332Z,19.20
2019-05-30T14:11:34.754Z,19.10
2019-05-30T14:14:03.048Z,19.00
2019-05-30T14:16:31.268Z,18.80
2019-05-30T14:19:01.023Z,18.60
2019-05-30T14:21:28.535Z,18.60
2019-05-30T14:23:55.807Z,18.80
2019-05-30T14:26:22.711Z,18.90
2019-05-30T14:28:50.802Z,18.70
2019-05-30T14:31:18.980Z,18.80
2019-05-30T14:33:47.177Z,18.60
2019-05-30T14:36:15.544Z,18.70
2019-05-30T14:38:57.121Z,18.70
2019-05-30T14:41:13.555Z,18.60
2019-05-30T14:43:41.955Z,18.60
2019-05-30T14:46:10.356Z,18.40
2019-05-30T14:48:39.167Z,18.50
2019-05-30T14:51:08.700Z,18.50
2019-05-30T14:53:37.022Z,18.50
2019-05-30T14:56:04.989Z,18.60
2019-05-30T14:58:32.519Z,18.50
2019-05-30T15:00:59.765Z,18.80
2019-05-30T15:03:27.671Z,18.90
2019-05-30T15:05:56.053Z,18.90
2019-05-30T15:08:24.385Z,19.20
2019-05-30T15:10:51.789Z,19.10
2019-05-30T15:13:19.960Z,19.40
2019-05-30T15:15:48.380Z,19.60
2019-05-30T15:18:17.413Z,19.90
2019-05-30T15:20:45.532Z,19.80
2019-05-30T15:23:15.759Z,20.10
2019-05-30T15:25:42.886Z,19.90
2019-05-30T15:28:12.224Z,19.90
2019-05-30T15:30:39.340Z,20.10
2019-05-30T15:33:06.652Z,19.80
2019-05-30T15:35:34.811Z,19.60
2019-05-30T15:38:02.954Z,19.90
2019-05-30T15:40:31.296Z,19.70
2019-05-30T15:42:59.843Z,19.60
2019-05-30T15:45:28.663Z,19.60
2019-05-30T15:47:55.751Z,19.70
2019-05-30T15:50:23.784Z,19.80
2019-05-30T15:52:52.234Z,19.60
2019-05-30T15:55:23.150Z,19.70
2019-05-30T15:57:50.741Z,19.80
2019-05-30T16:00:20.493Z,20.00
2019-05-30T16:02:47.642Z,19.90
2019-05-30T16:05:18.664Z,20.00
2019-05-30T16:07:46.418Z,20.00
2019-05-30T16:10:15.438Z,20.20
2019-05-30T16:12:44.174Z,19.90
2019-05-30T16:15:11.931Z,20.30
2019-05-30T16:17:40.169Z,20.00
2019-05-30T16:20:08.736Z,20.10
2019-05-30T16:22:36.782Z,20.20
2019-05-30T16:25:05.614Z,20.10
2019-05-30T16:27:33.672Z,20.10
2019-05-30T16:30:02.637Z,20.20
2019-05-30T16:32:31.215Z,20.30
2019-05-30T16:34:59.619Z,20.70
2019-05-30T16:37:28.094Z,20.40
2019-05-30T16:40:06.082Z,20.20
2019-05-30T16:42:26.533Z,20.10
2019-05-30T16:44:53.770Z,20.10
2019-05-30T16:47:24.780Z,20.20
2019-05-30T16:49:52.002Z,20.30
2019-05-30T16:52:21.411Z,20.40
2019-05-30T16:54:48.578Z,20.30
2019-05-30T16:57:16.485Z,20.40
2019-05-30T16:59:43.799Z,20.30
2019-05-30T17:02:11.411Z,20.30
2019-05-30T17:04:39.926Z,20.30
2019-05-30T17:07:13.490Z,20.30
2019-05-30T17:09:40.843Z,20.20
2019-05-30T17:12:07.836Z,20.30
2019-05-30T17:14:34.811Z,20.40
2019-05-30T17:17:03.069Z,20.30
2019-05-30T17:19:30.447Z,20.40
2019-05-30T17:21:58.623Z,20.20
2019-05-30T17:24:27.060Z,20.60
2019-05-30T17:26:54.567Z,20.40
2019-05-30T17:29:23.602Z,20.40
2019-05-30T17:31:52.874Z,20.50
2019-05-30T17:34:20.009Z,20.40
2019-05-30T17:36:48.050Z,20.20
2019-05-30T17:39:16.442Z,20.40
2019-05-30T17:41:48.455Z,20.30
2019-05-30T17:44:15.514Z,20.40
2019-05-30T17:46:42.962Z,20.50
2019-05-30T17:49:10.404Z,20.40
2019-05-30T17:51:37.611Z,20.70
2019-05-30T17:54:05.320Z,20.50
2019-05-30T17:56:32.719Z,20.40
2019-05-30T17:59:00.906Z,20.30
2019-05-30T18:01:30.430Z,20.20
2019-05-30T18:03:58.421Z,20.20
2019-05-30T18:06:26.477Z,20.30
2019-05-30T18:08:53.706Z,20.20
2019-05-30T18:11:21.139Z,20.00
2019-05-30T18:13:49.394Z,20.10
2019-05-30T18:16:17.859Z,20.00
2019-05-30T18:18:46.555Z,20.00
2019-05-30T18:21:14.613Z,20.20
2019-05-30T18:23:44.862Z,20.10
2019-05-30T18:26:14.597Z,20.50
2019-05-30T18:28:44.506Z,20.30
2019-05-30T18:31:12.254Z,20.20
2019-05-30T18:33:39.719Z,20.40
2019-05-30T18:36:07.457Z,20.20
2019-05-30T18:38:35.602Z,20.50
2019-05-30T18:41:11.606Z,20.30
2019-05-30T18:43:34.007Z,20.50
2019-05-30T18:46:02.810Z,20.30
2019-05-30T18:48:31.926Z,20.20
2019-05-30T18:51:00.301Z,20.20
2019-05-30T18:53:30.672Z,20.20
2019-05-30T18:56:00.123Z,20.30
2019-05-30T18:58:28.802Z,20.20
2019-05-30T19:00:56.864Z,20.20
2019-05-30T19:03:26.480Z,20.20
2019-05-30T19:05:55.072Z,20.30
2019-05-30T19:08:22.487Z,20.30
2019-05-30T19:10:52.894Z,20.10
2019-05-30T19:13:21.583Z,20.20
2019-05-30T19:15:50.038Z,20.30
2019-05-30T19:18:22.380Z,20.10
2019-05-30T19:20:49.899Z,20.00
2019-05-30T19:23:17.027Z,19.90
2019-05-30T19:25:45.135Z,20.00
2019-05-30T19:28:13.639Z,19.90
2019-05-30T19:30:43.455Z,20.10
2019-05-30T19:33:11.707Z,20.00
2019-05-30T19:35:38.877Z,19.90
2019-05-30T19:38:07.740Z,20.00
2019-05-30T19:40:36.131Z,19.80
2019-05-30T19:43:04.610Z,19.70
2019-05-30T19:45:36.276Z,19.70
2019-05-30T19:48:03.853Z,19.80
2019-05-30T19:50:32.478Z,19.90
2019-05-30T19:53:00.499Z,19.90
2019-05-30T19:55:29.096Z,20.00
2019-05-30T19:58:00.860Z,20.20
2019-05-30T20:00:29.891Z,19.90
2019-05-30T20:02:58.992Z,20.10
2019-05-30T20:05:26.288Z,19.90
2019-05-30T20:07:54.434Z,19.90
2019-05-30T20:10:22.102Z,19.70
2019-05-30T20:12:49.558Z,19.70
2019-05-30T20:15:17.541Z,19.90
2019-05-30T20:17:47.041Z,19.60
2019-05-30T20:20:14.296Z,19.60
2019-05-30T20:22:42.418Z,19.80
2019-05-30T20:25:11.641Z,19.50
2019-05-30T20:27:40.874Z,19.60
2019-05-30T20:30:09.808Z,19.60
2019-05-30T20:32:38.905Z,19.60
2019-05-30T20:35:07.896Z,19.60
2019-05-30T20:37:36.769Z,19.50
2019-05-30T20:40:06.573Z,19.50
2019-05-30T20:42:34.677Z,19.40
2019-05-30T20:45:06.017Z,19.70
2019-05-30T20:47:35.951Z,19.40
2019-05-30T20:50:05.142Z,19.60
2019-05-30T20:52:38.250Z,19.40
2019-05-30T20:55:05.084Z,19.40
2019-05-30T20:57:34.336Z,19.40
2019-05-30T21:00:03.923Z,19.30
2019-05-30T21:02:33.092Z,19.30
2019-05-30T21:05:02.174Z,19.20
2019-05-30T21:07:31.137Z,19.10
2019-05-30T21:10:01.531Z,19.20
2019-05-30T21:12:37.816Z,19.10
2019-05-30T21:15:03.343Z,19.00
2019-05-30T21:17:31.883Z,19.00
2019-05-30T21:20:00.399Z,19.00
2019-05-30T21:22:29.389Z,19.10
2019-05-30T21:24:57.908Z,18.80
2019-05-30T21:27:26.109Z,19.00
2019-05-30T21:29:54.998Z,19.00
2019-05-30T21:32:23.772Z,18.90
2019-05-30T21:34:52.654Z,18.90
2019-05-30T21:37:22.811Z,18.80
2019-05-30T21:39:52.755Z,18.80
2019-05-30T21:42:19.904Z,18.70
2019-05-30T21:44:51.472Z,18.80
2019-05-30T21:47:18.637Z,18.60
2019-05-30T21:49:49.124Z,18.70
2019-05-30T21:52:16.942Z,19.00
2019-05-30T21:54:43.915Z,18.80
2019-05-30T21:57:12.942Z,18.80
2019-05-30T21:59:42.322Z,18.90
2019-05-30T22:02:11.507Z,18.60
2019-05-30T22:04:42.481Z,18.90
2019-05-30T22:07:10.371Z,18.60
2019-05-30T22:09:38.312Z,18.90
2019-05-30T22:12:06.911Z,18.80
2019-05-30T22:14:35.686Z,18.70
2019-05-30T22:17:04.608Z,18.50
2019-05-30T22:19:32.042Z,18.60
2019-05-30T22:22:01.038Z,18.60
2019-05-30T22:24:30.223Z,18.70
2019-05-30T22:26:58.575Z,18.90
2019-05-30T22:29:27.395Z,18.70
2019-05-30T22:31:57.203Z,18.30
2019-05-30T22:34:27.079Z,18.80
2019-05-30T22:36:54.648Z,18.70
2019-05-30T22:39:24.135Z,18.90
2019-05-30T22:41:52.065Z,18.70
2019-05-30T22:44:20.595Z,18.70
2019-05-30T22:46:52.315Z,19.00
2019-05-30T22:49:21.023Z,18.70
2019-05-30T22:51:55.047Z,18.70
2019-05-30T22:54:23.024Z,18.70
2019-05-30T22:56:51.537Z,18.70
2019-05-30T22:59:20.631Z,18.70
2019-05-30T23:01:48.876Z,18.70
2019-05-30T23:04:18.182Z,18.60
2019-05-30T23:06:48.067Z,18.70
2019-05-30T23:09:15.279Z,18.60
2019-05-30T23:11:43.521Z,18.60
2019-05-30T23:14:10.807Z,18.70
2019-05-30T23:16:39.246Z,18.80
2019-05-30T23:19:07.354Z,18.60
2019-05-30T23:21:36.550Z,18.50
2019-05-30T23:24:06.295Z,18.50
2019-05-30T23:26:33.458Z,18.50
2019-05-30T23:29:01.746Z,18.60
2019-05-30T23:31:29.701Z,18.60
2019-05-30T23:33:58.647Z,18.60
2019-05-30T23:36:27.718Z,18.60
2019-05-30T23:38:56.886Z,18.60
2019-05-30T23:41:25.254Z,18.60
2019-05-30T23:44:05.520Z,18.70
2019-05-30T23:46:23.217Z,18.70
2019-05-30T23:48:51.913Z,18.60
2019-05-30T23:51:20.874Z,18.60
2019-05-30T23:53:47.958Z,18.60
2019-05-30T23:56:15.970Z,18.60
2019-05-30T23:58:44.157Z,18.50
